createdAt,value
2017-12-12T00:02:06.529Z,61.30
2017-12-12T00:04:35.318Z,61.30
2017-12-12T00:07:04.824Z,61.00
2017-12-12T00:09:33.718Z,60.80
2017-12-12T00:12:02.736Z,61.30
2017-12-12T00:14:31.597Z,62.00
2017-12-12T00:17:00.491Z,62.70
2017-12-12T00:19:29.382Z,62.40
2017-12-12T00:21:58.678Z,62.40
2017-12-12T00:24:28.389Z,62.60
2017-12-12T00:26:57.076Z,62.60
2017-12-12T00:29:25.915Z,62.10
2017-12-12T00:31:54.862Z,62.20
2017-12-12T00:34:24.577Z,62.80
2017-12-12T00:36:53.393Z,62.80
2017-12-12T00:39:22.103Z,62.60
2017-12-12T00:41:51.044Z,62.50
2017-12-12T00:44:19.933Z,62.60
2017-12-12T00:46:49.024Z,62.80
2017-12-12T00:49:17.817Z,62.60
2017-12-12T00:51:46.751Z,62.00
2017-12-12T00:54:15.602Z,62.40
2017-12-12T00:56:44.634Z,62.40
2017-12-12T00:59:13.864Z,62.20
2017-12-12T01:01:43.029Z,62.40
2017-12-12T01:04:12.236Z,62.90
2017-12-12T01:06:40.976Z,62.80
2017-12-12T01:09:09.655Z,63.20
2017-12-12T01:11:39.038Z,63.40
2017-12-12T01:14:07.751Z,63.70
2017-12-12T01:16:36.548Z,63.20
2017-12-12T01:19:05.438Z,63.30
2017-12-12T01:21:35.339Z,63.30
2017-12-12T01:24:04.167Z,63.40
2017-12-12T01:26:33.122Z,63.60
2017-12-12T01:29:01.830Z,64.40
2017-12-12T01:31:31.006Z,63.40
2017-12-12T01:34:00.396Z,63.00
2017-12-12T01:36:29.199Z,63.60
2017-12-12T01:38:58.299Z,63.00
2017-12-12T01:41:28.204Z,63.10
2017-12-12T01:43:57.932Z,63.10
2017-12-12T01:46:28.027Z,63.30
2017-12-12T01:48:56.932Z,63.20
2017-12-12T01:51:26.001Z,63.60
2017-12-12T01:53:54.978Z,63.60
2017-12-12T01:56:24.441Z,64.30
2017-12-12T01:58:54.076Z,63.70
2017-12-12T02:01:23.024Z,63.60
2017-12-12T02:03:51.937Z,63.70
2017-12-12T02:06:21.645Z,64.20
2017-12-12T02:08:51.893Z,64.30
2017-12-12T02:11:22.059Z,64.10
2017-12-12T02:13:51.607Z,64.10
2017-12-12T02:16:20.879Z,63.70
2017-12-12T02:18:50.284Z,64.30
2017-12-12T02:21:20.101Z,64.60
2017-12-12T02:23:50.106Z,64.20
2017-12-12T02:26:19.327Z,64.20
2017-12-12T02:28:48.447Z,64.40
2017-12-12T02:31:17.595Z,64.20
2017-12-12T02:33:46.603Z,64.50
2017-12-12T02:36:15.977Z,64.30
2017-12-12T02:38:44.794Z,64.70
2017-12-12T02:41:13.890Z,64.90
2017-12-12T02:43:43.090Z,64.60
2017-12-12T02:46:12.661Z,65.10
2017-12-12T02:48:41.796Z,65.30
2017-12-12T02:51:10.881Z,65.40
2017-12-12T02:53:39.982Z,65.70
2017-12-12T02:56:09.699Z,66.00
2017-12-12T02:58:38.905Z,65.90
2017-12-12T03:01:07.877Z,66.10
2017-12-12T03:03:37.793Z,66.60
2017-12-12T03:06:07.760Z,66.50
2017-12-12T03:08:37.273Z,66.50
2017-12-12T03:11:06.371Z,66.40
2017-12-12T03:13:35.412Z,66.80
2017-12-12T03:16:05.327Z,66.70
2017-12-12T03:18:34.618Z,66.70
2017-12-12T03:21:04.031Z,66.80
2017-12-12T03:23:33.016Z,67.00
2017-12-12T03:26:02.726Z,67.40
2017-12-12T03:28:31.556Z,67.40
2017-12-12T03:31:00.507Z,67.50
2017-12-12T03:33:29.459Z,67.60
2017-12-12T03:35:58.393Z,67.90
2017-12-12T03:38:27.283Z,67.30
2017-12-12T03:40:56.180Z,66.90
2017-12-12T03:43:25.064Z,67.20
2017-12-12T03:45:53.959Z,67.20
2017-12-12T03:48:23.052Z,67.10
2017-12-12T03:50:51.942Z,67.20
2017-12-12T03:53:20.833Z,67.30
2017-12-12T03:55:49.742Z,67.30
2017-12-12T03:58:18.667Z,68.70
2017-12-12T04:00:47.609Z,68.70
2017-12-12T04:03:16.453Z,68.80
2017-12-12T04:05:46.109Z,68.90
2017-12-12T04:08:15.817Z,68.90
2017-12-12T04:10:44.709Z,68.80
2017-12-12T04:13:16.467Z,69.30
2017-12-12T04:15:45.370Z,68.60
2017-12-12T04:18:15.069Z,69.30
2017-12-12T04:20:44.777Z,69.00
2017-12-12T04:23:13.669Z,69.00
2017-12-12T04:25:42.560Z,68.90
2017-12-12T04:28:11.398Z,68.90
2017-12-12T04:30:40.342Z,68.90
2017-12-12T04:33:09.235Z,68.60
2017-12-12T04:35:38.126Z,68.90
2017-12-12T04:38:07.016Z,68.80
2017-12-12T04:40:36.673Z,68.50
2017-12-12T04:43:05.614Z,68.40
2017-12-12T04:45:34.507Z,69.10
2017-12-12T04:48:03.341Z,68.80
2017-12-12T04:50:32.290Z,68.90
2017-12-12T04:53:01.112Z,68.90
2017-12-12T04:55:29.866Z,69.50
2017-12-12T04:57:58.757Z,69.50
2017-12-12T05:00:27.648Z,69.50
2017-12-12T05:02:56.546Z,69.70
2017-12-12T05:05:25.586Z,69.30
2017-12-12T05:07:54.531Z,69.30
2017-12-12T05:10:23.416Z,69.40
2017-12-12T05:12:52.251Z,69.60
2017-12-12T05:15:20.945Z,68.90
2017-12-12T05:17:49.889Z,68.60
2017-12-12T05:20:19.596Z,69.10
2017-12-12T05:22:48.690Z,69.00
2017-12-12T05:25:17.531Z,69.10
2017-12-12T05:27:46.472Z,69.10
2017-12-12T05:30:15.365Z,68.90
2017-12-12T05:32:44.254Z,69.40
2017-12-12T05:35:14.882Z,69.70
2017-12-12T05:37:43.892Z,69.80
2017-12-12T05:40:12.784Z,70.10
2017-12-12T05:42:41.779Z,70.00
2017-12-12T05:45:10.668Z,70.30
2017-12-12T05:47:39.564Z,70.70
2017-12-12T05:50:08.348Z,70.60
2017-12-12T05:52:37.245Z,70.80
2017-12-12T05:55:06.147Z,70.90
2017-12-12T05:57:35.024Z,70.40
2017-12-12T06:00:03.915Z,70.40
2017-12-12T06:02:32.806Z,70.10
2017-12-12T06:05:01.705Z,70.60
2017-12-12T06:07:30.587Z,70.00
2017-12-12T06:09:59.419Z,70.50
2017-12-12T06:12:28.383Z,70.60
2017-12-12T06:14:57.261Z,70.00
2017-12-12T06:17:26.294Z,70.60
2017-12-12T06:19:55.247Z,70.50
2017-12-12T06:22:24.138Z,70.20
2017-12-12T06:24:53.246Z,70.10
2017-12-12T06:27:22.231Z,70.40
2017-12-12T06:29:51.122Z,70.80
2017-12-12T06:32:20.011Z,70.80
2017-12-12T06:34:48.904Z,70.80
2017-12-12T06:37:18.312Z,70.70
2017-12-12T06:39:47.352Z,70.20
2017-12-12T06:42:16.184Z,70.50
2017-12-12T06:44:45.084Z,70.50
2017-12-12T06:47:13.868Z,71.20
2017-12-12T06:49:42.762Z,70.90
2017-12-12T06:52:11.654Z,70.90
2017-12-12T06:54:41.359Z,69.90
2017-12-12T06:57:10.144Z,70.00
2017-12-12T06:59:39.057Z,70.40
2017-12-12T07:02:07.930Z,69.70
2017-12-12T07:04:36.819Z,69.90
2017-12-12T07:07:05.519Z,70.10
2017-12-12T07:09:34.402Z,69.30
2017-12-12T07:12:03.301Z,69.50
2017-12-12T07:14:32.180Z,69.50
2017-12-12T07:17:01.070Z,69.30
2017-12-12T07:19:29.961Z,69.10
2017-12-12T07:21:58.854Z,69.20
2017-12-12T07:24:27.743Z,70.10
2017-12-12T07:26:56.636Z,69.50
2017-12-12T07:29:25.531Z,69.00
2017-12-12T07:31:54.210Z,68.30
2017-12-12T07:34:23.101Z,68.60
2017-12-12T07:36:52.608Z,68.50
2017-12-12T07:39:22.426Z,68.30
2017-12-12T07:41:51.431Z,68.20
2017-12-12T07:44:20.919Z,68.20
2017-12-12T07:46:49.816Z,68.20
2017-12-12T07:49:18.703Z,67.80
2017-12-12T07:51:47.428Z,67.60
2017-12-12T07:54:16.287Z,67.40
2017-12-12T07:56:45.171Z,67.70
2017-12-12T07:59:14.074Z,67.50
2017-12-12T08:01:42.950Z,68.00
2017-12-12T08:04:11.635Z,67.60
2017-12-12T08:06:40.537Z,67.50
2017-12-12T08:09:09.320Z,67.50
2017-12-12T08:11:38.104Z,67.90
2017-12-12T08:14:06.794Z,67.40
2017-12-12T08:16:36.295Z,67.30
2017-12-12T08:19:05.086Z,67.30
2017-12-12T08:21:33.975Z,66.10
2017-12-12T08:24:02.872Z,66.50
2017-12-12T08:26:31.761Z,65.70
2017-12-12T08:29:01.423Z,66.60
2017-12-12T08:31:30.359Z,65.90
2017-12-12T08:34:00.069Z,66.10
2017-12-12T08:36:28.961Z,66.00
2017-12-12T08:38:57.679Z,65.70
2017-12-12T08:41:26.434Z,66.10
2017-12-12T08:43:55.334Z,65.80
2017-12-12T08:46:24.115Z,65.80
2017-12-12T08:48:52.903Z,65.30
2017-12-12T08:51:21.691Z,65.30
2017-12-12T08:53:50.585Z,65.20
2017-12-12T08:56:19.490Z,65.70
2017-12-12T08:58:48.262Z,65.90
2017-12-12T09:01:17.052Z,66.50
2017-12-12T09:03:45.740Z,66.20
2017-12-12T09:06:14.494Z,66.10
2017-12-12T09:08:43.416Z,65.90
2017-12-12T09:11:12.102Z,66.70
2017-12-12T09:13:40.994Z,66.20
2017-12-12T09:16:09.889Z,65.40
2017-12-12T09:18:38.570Z,65.10
2017-12-12T09:21:07.258Z,65.30
2017-12-12T09:23:36.052Z,65.20
2017-12-12T09:26:04.936Z,65.40
2017-12-12T09:28:33.936Z,65.70
2017-12-12T09:31:02.985Z,65.50
2017-12-12T09:33:31.721Z,65.10
2017-12-12T09:36:00.503Z,65.40
2017-12-12T09:38:29.291Z,64.80
2017-12-12T09:40:58.188Z,64.60
2017-12-12T09:43:27.073Z,64.70
2017-12-12T09:45:55.965Z,64.10
2017-12-12T09:48:24.819Z,64.10
2017-12-12T09:50:53.538Z,64.10
2017-12-12T09:53:23.276Z,64.10
2017-12-12T09:55:52.345Z,64.10
2017-12-12T09:58:21.237Z,64.50
2017-12-12T10:00:50.133Z,64.40
2017-12-12T10:03:19.020Z,64.20
2017-12-12T10:05:47.743Z,64.70
2017-12-12T10:08:18.298Z,64.60
2017-12-12T10:10:47.024Z,64.60
2017-12-12T10:13:15.821Z,64.60
2017-12-12T10:15:44.637Z,64.60
2017-12-12T10:18:13.388Z,64.70
2017-12-12T10:20:42.284Z,64.50
2017-12-12T10:23:11.185Z,64.70
2017-12-12T10:25:40.063Z,64.50
2017-12-12T10:28:08.952Z,64.50
2017-12-12T10:30:37.902Z,65.90
2017-12-12T10:33:06.531Z,65.60
2017-12-12T10:35:35.422Z,66.30
2017-12-12T10:38:04.712Z,66.80
2017-12-12T10:40:33.817Z,67.10
2017-12-12T10:43:02.915Z,66.10
2017-12-12T10:45:31.818Z,66.30
2017-12-12T10:48:00.801Z,65.60
2017-12-12T10:50:29.902Z,66.10
2017-12-12T10:52:58.785Z,65.60
2017-12-12T10:55:27.675Z,65.80
2017-12-12T10:57:57.333Z,66.10
2017-12-12T11:00:26.279Z,66.00
2017-12-12T11:02:55.372Z,66.10
2017-12-12T11:05:24.161Z,66.70
2017-12-12T11:07:53.256Z,66.20
2017-12-12T11:10:21.947Z,66.20
2017-12-12T11:12:50.833Z,65.70
2017-12-12T11:15:19.628Z,66.10
2017-12-12T11:17:48.521Z,66.00
2017-12-12T11:20:17.200Z,66.10
2017-12-12T11:22:46.096Z,66.30
2017-12-12T11:25:14.881Z,67.20
2017-12-12T11:27:43.625Z,65.40
2017-12-12T11:30:12.398Z,67.60
2017-12-12T11:32:41.292Z,68.20
2017-12-12T11:35:10.143Z,68.00
2017-12-12T11:37:39.030Z,68.00
2017-12-12T11:40:09.574Z,67.60
2017-12-12T11:42:38.450Z,67.30
2017-12-12T11:45:07.277Z,65.60
2017-12-12T11:47:36.025Z,66.60
2017-12-12T11:50:05.734Z,66.20
2017-12-12T11:52:34.626Z,65.30
2017-12-12T11:55:03.415Z,65.90
2017-12-12T11:57:32.305Z,65.60
2017-12-12T12:00:01.102Z,65.70
2017-12-12T12:02:30.096Z,65.40
2017-12-12T12:04:59.193Z,65.50
2017-12-12T12:07:28.895Z,64.20
2017-12-12T12:09:57.686Z,64.20
2017-12-12T12:12:27.603Z,64.10
2017-12-12T12:14:56.512Z,63.60
2017-12-12T12:17:26.141Z,64.20
2017-12-12T12:19:55.094Z,64.00
2017-12-12T12:22:23.994Z,64.90
2017-12-12T12:24:53.085Z,64.90
2017-12-12T12:27:21.967Z,64.60
2017-12-12T12:29:50.871Z,65.10
2017-12-12T12:32:20.571Z,65.10
2017-12-12T12:34:49.465Z,65.10
2017-12-12T12:37:19.178Z,65.00
2017-12-12T12:39:47.981Z,65.00
2017-12-12T12:42:16.859Z,64.50
2017-12-12T12:44:45.694Z,63.20
2017-12-12T12:47:14.650Z,63.40
2017-12-12T12:49:43.468Z,63.50
2017-12-12T12:52:12.419Z,63.90
2017-12-12T12:54:41.495Z,64.00
2017-12-12T12:57:10.518Z,64.20
2017-12-12T12:59:39.290Z,63.30
2017-12-12T13:02:08.181Z,63.60
2017-12-12T13:04:36.969Z,64.40
2017-12-12T13:07:05.762Z,64.80
2017-12-12T13:09:34.549Z,64.40
2017-12-12T13:12:03.443Z,64.70
2017-12-12T13:14:32.133Z,65.10
2017-12-12T13:17:00.812Z,64.90
2017-12-12T13:19:29.702Z,64.60
2017-12-12T13:21:58.494Z,65.10
2017-12-12T13:24:27.384Z,65.30
2017-12-12T13:26:56.388Z,66.30
2017-12-12T13:32:22.427Z,68.00
2017-12-12T13:34:51.108Z,67.30
2017-12-12T13:37:19.795Z,67.10
2017-12-12T13:39:48.583Z,67.30
2017-12-12T13:42:17.272Z,67.40
2017-12-12T13:44:46.054Z,67.70
2017-12-12T13:47:14.948Z,67.60
2017-12-12T13:49:43.840Z,67.90
2017-12-12T13:52:12.628Z,66.80
2017-12-12T13:54:41.473Z,64.40
2017-12-12T13:57:10.214Z,64.30
2017-12-12T13:59:39.105Z,63.80
2017-12-12T14:02:07.986Z,64.00
2017-12-12T14:04:36.671Z,64.00
2017-12-12T14:07:05.356Z,64.40
2017-12-12T14:09:34.045Z,64.50
2017-12-12T14:12:02.729Z,64.40
2017-12-12T14:14:31.415Z,64.00
2017-12-12T14:17:00.307Z,63.30
2017-12-12T14:19:29.200Z,62.90
2017-12-12T14:21:58.091Z,62.90
2017-12-12T14:24:26.979Z,63.00
2017-12-12T14:26:55.767Z,63.20
2017-12-12T14:29:24.558Z,62.60
2017-12-12T14:31:53.344Z,62.60
2017-12-12T14:34:22.030Z,62.60
2017-12-12T14:36:50.715Z,62.20
2017-12-12T14:39:19.403Z,62.60
2017-12-12T14:41:48.159Z,63.30
2017-12-12T14:44:17.595Z,62.80
2017-12-12T14:46:46.281Z,62.70
2017-12-12T14:49:15.172Z,63.50
2017-12-12T14:51:44.677Z,63.00
2017-12-12T14:54:13.734Z,63.00
2017-12-12T14:56:42.666Z,63.20
2017-12-12T14:59:11.557Z,62.40
2017-12-12T15:01:40.461Z,62.70
2017-12-12T15:04:09.132Z,62.50
2017-12-12T15:06:38.038Z,62.20
2017-12-12T15:09:06.916Z,61.90
2017-12-12T15:11:35.808Z,62.80
2017-12-12T15:14:04.494Z,62.40
2017-12-12T15:16:33.382Z,62.10
2017-12-12T15:19:02.068Z,62.00
2017-12-12T15:21:30.754Z,61.30
2017-12-12T15:23:59.441Z,61.10
2017-12-12T15:26:28.126Z,60.50
2017-12-12T15:28:57.021Z,60.40
2017-12-12T15:31:25.911Z,60.20
2017-12-12T15:33:54.596Z,60.00
2017-12-12T15:36:23.283Z,60.00
2017-12-12T15:38:52.073Z,60.00
2017-12-12T15:41:21.071Z,60.30
2017-12-12T15:43:49.957Z,60.10
2017-12-12T15:46:18.845Z,59.80
2017-12-12T15:48:48.702Z,60.30
2017-12-12T15:51:17.651Z,60.50
2017-12-12T15:53:46.360Z,60.20
2017-12-12T15:56:15.228Z,60.60
2017-12-12T15:58:43.923Z,60.60
2017-12-12T16:01:12.601Z,60.00
2017-12-12T16:03:41.291Z,60.40
2017-12-12T16:06:10.185Z,60.00
2017-12-12T16:08:39.069Z,61.10
2017-12-12T16:11:07.754Z,60.60
2017-12-12T16:13:36.645Z,62.00
2017-12-12T16:16:05.433Z,61.50
2017-12-12T16:18:35.658Z,60.90
2017-12-12T16:21:04.459Z,60.80
2017-12-12T16:23:33.339Z,61.10
2017-12-12T16:26:02.125Z,61.40
2017-12-12T16:28:31.018Z,61.60
2017-12-12T16:30:59.804Z,61.60
2017-12-12T16:33:28.639Z,61.40
2017-12-12T16:35:57.590Z,62.00
2017-12-12T16:38:27.195Z,61.20
2017-12-12T16:40:56.089Z,61.10
2017-12-12T16:43:24.875Z,62.40
2017-12-12T16:45:53.767Z,62.20
2017-12-12T16:48:22.661Z,63.30
2017-12-12T16:50:51.429Z,63.70
2017-12-12T16:53:20.336Z,64.40
2017-12-12T16:55:49.230Z,65.10
2017-12-12T16:58:18.064Z,65.90
2017-12-12T17:00:46.803Z,66.60
2017-12-12T17:03:16.319Z,67.60
2017-12-12T17:05:44.998Z,67.60
2017-12-12T17:08:13.889Z,67.70
2017-12-12T17:10:42.673Z,68.00
2017-12-12T17:13:11.360Z,68.60
2017-12-12T17:15:40.259Z,68.40
2017-12-12T17:18:09.658Z,68.70
2017-12-12T17:20:38.446Z,68.70
2017-12-12T17:23:07.352Z,68.80
2017-12-12T17:25:36.021Z,69.00
2017-12-12T17:28:04.721Z,68.50
2017-12-12T17:30:33.693Z,68.70
2017-12-12T17:33:02.491Z,68.90
2017-12-12T17:35:31.175Z,69.40
2017-12-12T17:37:59.864Z,69.30
2017-12-12T17:40:28.750Z,69.60
2017-12-12T17:42:57.439Z,70.70
2017-12-12T17:45:27.150Z,70.00
2017-12-12T17:47:56.154Z,70.00
2017-12-12T17:50:25.134Z,69.90
2017-12-12T17:52:54.028Z,70.00
2017-12-12T17:55:23.737Z,69.30
2017-12-12T17:57:52.421Z,69.70
2017-12-12T18:00:21.314Z,70.00
2017-12-12T18:02:50.014Z,70.00
2017-12-12T18:05:18.688Z,69.40
2017-12-12T18:07:47.474Z,69.50
2017-12-12T18:10:16.379Z,69.80
2017-12-12T18:12:45.470Z,69.70
2017-12-12T18:15:14.358Z,70.00
2017-12-12T18:17:43.038Z,70.10
2017-12-12T18:20:11.955Z,69.80
2017-12-12T18:22:41.453Z,70.20
2017-12-12T18:25:10.325Z,70.10
2017-12-12T18:27:39.224Z,70.40
2017-12-12T18:30:08.101Z,70.40
2017-12-12T18:32:38.270Z,71.00
2017-12-12T18:35:07.016Z,71.00
2017-12-12T18:37:35.909Z,70.90
2017-12-12T18:40:05.563Z,71.20
2017-12-12T18:42:34.512Z,71.00
2017-12-12T18:45:03.242Z,70.90
2017-12-12T18:47:32.288Z,71.10
2017-12-12T18:50:01.283Z,70.80
2017-12-12T18:52:30.175Z,71.10
2017-12-12T18:54:58.864Z,71.10
2017-12-12T18:57:27.707Z,71.40
2017-12-12T18:59:56.443Z,70.80
2017-12-12T19:02:25.330Z,70.70
2017-12-12T19:04:54.014Z,70.70
2017-12-12T19:07:22.909Z,70.30
2017-12-12T19:09:51.694Z,70.30
2017-12-12T19:12:20.542Z,70.20
2017-12-12T19:14:49.280Z,70.40
2017-12-12T19:17:18.163Z,70.30
2017-12-12T19:19:47.233Z,70.30
2017-12-12T19:22:16.168Z,70.50
2017-12-12T19:24:45.000Z,70.40
2017-12-12T19:27:13.727Z,70.30
2017-12-12T19:29:42.413Z,70.40
2017-12-12T19:32:11.099Z,69.90
2017-12-12T19:34:39.992Z,70.00
2017-12-12T19:37:08.885Z,70.30
2017-12-12T19:39:37.671Z,70.30
2017-12-12T19:42:07.389Z,70.20
2017-12-12T19:44:36.273Z,69.90
2017-12-12T19:47:04.960Z,69.80
2017-12-12T19:49:34.671Z,68.80
2017-12-12T19:52:03.562Z,68.70
2017-12-12T19:54:32.246Z,68.60
2017-12-12T19:57:01.138Z,68.20
2017-12-12T19:59:30.033Z,67.40
2017-12-12T20:01:58.716Z,66.10
2017-12-12T20:04:27.618Z,65.40
2017-12-12T20:06:57.322Z,64.70
2017-12-12T20:09:26.002Z,64.60
2017-12-12T20:11:54.696Z,64.40
2017-12-12T20:14:23.556Z,64.70
2017-12-12T20:16:52.271Z,64.80
2017-12-12T20:19:20.952Z,64.30
2017-12-12T20:21:49.844Z,64.90
2017-12-12T20:24:18.531Z,65.10
2017-12-12T20:26:47.422Z,64.90
2017-12-12T20:29:16.313Z,64.80
2017-12-12T20:31:44.995Z,64.80
2017-12-12T20:34:13.898Z,64.90
2017-12-12T20:36:42.784Z,64.90
2017-12-12T20:39:11.463Z,65.40
2017-12-12T20:41:40.366Z,65.40
2017-12-12T20:44:09.246Z,65.50
2017-12-12T20:46:37.933Z,65.70
2017-12-12T20:49:06.889Z,65.90
2017-12-12T20:51:36.537Z,66.40
2017-12-12T20:54:05.324Z,66.40
2017-12-12T20:56:34.219Z,66.60
2017-12-12T20:59:03.009Z,66.70
2017-12-12T21:01:31.895Z,66.80
2017-12-12T21:04:00.784Z,66.80
2017-12-12T21:06:29.772Z,67.00
2017-12-12T21:08:58.566Z,67.20
2017-12-12T21:11:27.255Z,67.10
2017-12-12T21:13:56.143Z,67.10
2017-12-12T21:16:24.829Z,67.30
2017-12-12T21:18:53.450Z,67.40
2017-12-12T21:21:22.200Z,67.40
2017-12-12T21:23:51.814Z,67.70
2017-12-12T21:26:20.846Z,67.70
2017-12-12T21:28:50.411Z,68.70
2017-12-12T21:31:19.109Z,68.10
2017-12-12T21:33:47.783Z,68.40
2017-12-12T21:36:16.471Z,68.30
2017-12-12T21:38:45.263Z,68.40
2017-12-12T21:41:14.151Z,68.70
2017-12-12T21:43:43.043Z,68.80
2017-12-12T21:46:11.726Z,68.90
2017-12-12T21:48:40.420Z,69.10
2017-12-12T21:51:09.305Z,69.20
2017-12-12T21:53:37.997Z,69.30
2017-12-12T21:56:06.880Z,69.40
2017-12-12T21:58:35.768Z,69.80
2017-12-12T22:01:04.464Z,70.10
2017-12-12T22:03:33.146Z,70.40
2017-12-12T22:06:02.143Z,70.90
2017-12-12T22:08:31.033Z,71.20
2017-12-12T22:10:59.732Z,71.20
2017-12-12T22:13:28.605Z,71.40
2017-12-12T22:15:57.393Z,71.40
2017-12-12T22:18:26.081Z,71.30
2017-12-12T22:20:54.767Z,71.50
2017-12-12T22:23:24.271Z,71.40
2017-12-12T22:25:52.958Z,71.40
2017-12-12T22:28:25.058Z,71.40
2017-12-12T22:30:53.811Z,71.30
2017-12-12T22:33:22.498Z,71.30
2017-12-12T22:35:51.388Z,71.70
2017-12-12T22:38:20.075Z,71.40
2017-12-12T22:40:48.759Z,71.40
2017-12-12T22:43:17.651Z,71.60
2017-12-12T22:45:46.337Z,71.60
2017-12-12T22:48:15.024Z,71.80
2017-12-12T22:50:43.915Z,71.80
2017-12-12T22:53:12.810Z,71.80
2017-12-12T22:55:41.497Z,72.20
2017-12-12T22:58:10.281Z,71.60
2017-12-12T23:00:39.158Z,71.70
2017-12-12T23:03:08.883Z,71.60
2017-12-12T23:05:37.772Z,71.60
2017-12-12T23:08:06.462Z,71.70
2017-12-12T23:10:35.146Z,72.30
2017-12-12T23:13:04.241Z,72.00
2017-12-12T23:15:33.140Z,72.40
2017-12-12T23:18:03.135Z,72.00
2017-12-12T23:20:31.940Z,72.20
2017-12-12T23:23:00.728Z,72.70
2017-12-12T23:25:29.748Z,72.70
2017-12-12T23:27:58.934Z,72.40
2017-12-12T23:30:28.244Z,72.60
2017-12-12T23:32:57.007Z,72.60
2017-12-12T23:35:25.898Z,72.60
2017-12-12T23:37:55.030Z,72.30
2017-12-12T23:40:25.269Z,71.70
2017-12-12T23:42:54.208Z,71.70
2017-12-12T23:45:23.100Z,71.10
2017-12-12T23:47:51.785Z,71.00
2017-12-12T23:50:20.567Z,70.80
2017-12-12T23:52:49.465Z,70.70
2017-12-12T23:55:18.325Z,69.70
2017-12-12T23:57:47.063Z,69.40
